createdAt,value
2024-02-07T00:02:25.172Z,95133.41
2024-02-07T00:04:53.248Z,95130.81
2024-02-07T00:07:21.318Z,95133.28
2024-02-07T00:09:49.311Z,95140.88
2024-02-07T00:12:19.163Z,95137.72
2024-02-07T00:14:47.072Z,95134.69
2024-02-07T00:17:15.079Z,95135.28
2024-02-07T00:19:43.092Z,95133.28
2024-02-07T00:22:10.223Z,95134.25
2024-02-07T00:24:40.479Z,95141.09
2024-02-07T00:27:08.671Z,95131.63
2024-02-07T00:29:38.549Z,95132.91
2024-02-07T00:32:06.952Z,95138.56
2024-02-07T00:34:35.632Z,95133.22
2024-02-07T00:37:04.013Z,95125.03
2024-02-07T00:39:31.975Z,95138.03
2024-02-07T00:41:59.915Z,95142.69
2024-02-07T00:44:27.828Z,95137.47
2024-02-07T00:46:57.286Z,95124.81
2024-02-07T00:49:25.429Z,95128.19
2024-02-07T00:51:53.435Z,95129.53
2024-02-07T00:54:22.682Z,95126.59
2024-02-07T00:56:50.710Z,95124.22
2024-02-07T00:59:18.971Z,95127.91
2024-02-07T01:01:47.002Z,95126.66
2024-02-07T01:04:16.503Z,95119.72
2024-02-07T01:06:44.492Z,95118.94
2024-02-07T01:09:12.625Z,95114.47
2024-02-07T01:11:40.633Z,95116.94
2024-02-07T01:14:08.784Z,95120.63
2024-02-07T01:16:36.815Z,95110.66
2024-02-07T01:19:05.082Z,95115.66
2024-02-07T01:21:34.380Z,95106.72
2024-02-07T01:24:02.289Z,95102.22
2024-02-07T01:26:30.154Z,95106.84
2024-02-07T01:28:58.151Z,95103.94
2024-02-07T01:31:26.107Z,95104.09
2024-02-07T01:33:55.471Z,95098.25
2024-02-07T01:36:25.733Z,95098.91
2024-02-07T01:38:56.629Z,95091.91
2024-02-07T01:41:25.347Z,95092.53
2024-02-07T01:43:53.360Z,95089.97
2024-02-07T01:46:21.579Z,95083.75
2024-02-07T01:48:51.085Z,95086.00
2024-02-07T01:51:21.031Z,95073.00
2024-02-07T01:53:50.744Z,95074.41
2024-02-07T01:56:20.307Z,95070.81
2024-02-07T01:58:49.964Z,95068.00
2024-02-07T02:01:18.533Z,95069.47
2024-02-07T02:03:46.934Z,95073.25
2024-02-07T02:06:15.014Z,95084.97
2024-02-07T02:08:43.519Z,95077.00
2024-02-07T02:11:13.258Z,95079.00
2024-02-07T02:13:42.863Z,95081.94
2024-02-07T02:16:10.823Z,95085.72
2024-02-07T02:18:38.762Z,95086.97
2024-02-07T02:21:07.887Z,95083.41
2024-02-07T02:23:51.090Z,95085.03
2024-02-07T02:26:51.069Z,95087.00
2024-02-07T02:29:34.143Z,95072.00
2024-02-07T02:32:03.509Z,95082.00
2024-02-07T02:34:33.322Z,95074.50
2024-02-07T02:37:02.405Z,95075.19
2024-02-07T02:39:30.865Z,95076.19
2024-02-07T02:41:59.536Z,95069.25
2024-02-07T02:44:31.434Z,95072.06
2024-02-07T02:47:02.775Z,95061.50
2024-02-07T02:49:31.115Z,95064.81
2024-02-07T02:51:59.175Z,95068.75
2024-02-07T02:54:27.075Z,95058.06
2024-02-07T02:57:01.172Z,95071.84
2024-02-07T02:59:31.251Z,95069.06
2024-02-07T03:01:59.498Z,95074.69
2024-02-07T03:04:28.141Z,95068.38
2024-02-07T03:07:14.802Z,95065.88
2024-02-07T03:09:50.292Z,95064.47
2024-02-07T03:12:18.441Z,95069.75
2024-02-07T03:14:47.775Z,95072.34
2024-02-07T03:17:16.177Z,95067.75
2024-02-07T03:19:44.222Z,95067.09
2024-02-07T03:22:12.144Z,95062.78
2024-02-07T03:24:41.162Z,95064.66
2024-02-07T03:27:09.396Z,95063.94
2024-02-07T03:29:37.322Z,95061.66
2024-02-07T03:32:07.000Z,95068.22
2024-02-07T03:34:34.992Z,95071.00
2024-02-07T03:37:03.168Z,95065.00
2024-02-07T03:39:31.088Z,95057.97
2024-02-07T03:41:59.503Z,95052.22
2024-02-07T03:44:27.458Z,95054.19
2024-02-07T03:46:56.154Z,95054.00
2024-02-07T03:49:25.705Z,95050.13
2024-02-07T03:51:54.723Z,95047.50
2024-02-07T03:54:22.667Z,95055.41
2024-02-07T03:56:50.577Z,95047.50
2024-02-07T03:59:20.083Z,95049.72
2024-02-07T04:01:48.108Z,95046.25
2024-02-07T04:04:16.322Z,95057.66
2024-02-07T04:06:45.769Z,95058.19
2024-02-07T04:09:19.702Z,95055.97
2024-02-07T04:11:46.600Z,95045.13
2024-02-07T04:14:13.384Z,95049.22
2024-02-07T04:16:58.714Z,95045.31
2024-02-07T04:19:44.099Z,95049.50
2024-02-07T04:22:30.787Z,95056.94
2024-02-07T04:25:16.128Z,95056.34
2024-02-07T04:28:01.576Z,95050.22
2024-02-07T04:30:46.920Z,95044.50
2024-02-07T04:33:32.257Z,95049.22
2024-02-07T04:36:17.534Z,95052.94
2024-02-07T04:39:04.385Z,95046.94
2024-02-07T04:41:49.780Z,95046.22
2024-02-07T04:44:35.193Z,95045.22
2024-02-07T04:47:20.771Z,95036.78
2024-02-07T04:50:06.049Z,95037.22
2024-02-07T04:52:51.724Z,95043.03
2024-02-07T04:55:38.647Z,95026.13
2024-02-07T04:58:24.014Z,95022.22
2024-02-07T05:01:09.382Z,95033.81
2024-02-07T05:03:54.759Z,95029.44
2024-02-07T05:06:40.017Z,95030.97
2024-02-07T05:09:25.487Z,95033.47
2024-02-07T05:12:12.285Z,95034.78
2024-02-07T05:14:50.983Z,95028.84
2024-02-07T05:17:20.857Z,95029.53
2024-02-07T05:19:49.315Z,95033.63
2024-02-07T05:22:18.434Z,95022.38
2024-02-07T05:24:47.151Z,95032.50
2024-02-07T05:27:17.874Z,95028.25
2024-02-07T05:29:46.334Z,95032.13
2024-02-07T05:32:14.508Z,95044.00
2024-02-07T05:34:42.826Z,95049.31
2024-02-07T05:37:10.821Z,95047.28
2024-02-07T05:39:39.220Z,95051.69
2024-02-07T05:42:07.719Z,95045.91
2024-02-07T05:44:37.285Z,95041.56
2024-02-07T05:47:05.472Z,95044.50
2024-02-07T05:49:33.568Z,95043.28
2024-02-07T05:52:02.828Z,95041.94
2024-02-07T05:54:31.616Z,95038.31
2024-02-07T05:56:59.763Z,95045.88
2024-02-07T05:59:27.899Z,95046.47
2024-02-07T06:01:57.611Z,95047.56
2024-02-07T06:04:25.856Z,95044.22
2024-02-07T06:06:55.058Z,95056.94
2024-02-07T06:09:23.155Z,95053.13
2024-02-07T06:11:52.900Z,95002.56
2024-02-07T06:14:21.025Z,95053.63
2024-02-07T06:16:49.119Z,95054.41
2024-02-07T06:19:20.236Z,95067.97
2024-02-07T06:21:50.758Z,95055.78
2024-02-07T06:24:18.802Z,95050.56
2024-02-07T06:26:46.769Z,95045.63
2024-02-07T06:29:14.742Z,95042.81
2024-02-07T06:31:42.634Z,95047.72
2024-02-07T06:34:10.779Z,95049.22
2024-02-07T06:36:40.159Z,95046.91
2024-02-07T06:39:08.149Z,95051.91
2024-02-07T06:41:36.130Z,95058.66
2024-02-07T06:44:04.204Z,95061.91
2024-02-07T06:46:32.240Z,95054.81
2024-02-07T06:49:00.172Z,95063.53
2024-02-07T06:51:28.810Z,95062.19
2024-02-07T06:53:58.147Z,95055.34
2024-02-07T06:56:26.100Z,95059.63
2024-02-07T06:58:54.317Z,95055.38
2024-02-07T07:01:22.501Z,95055.66
2024-02-07T07:03:52.939Z,95057.59
2024-02-07T07:06:21.028Z,95050.63
2024-02-07T07:08:49.134Z,95056.63
2024-02-07T07:11:18.445Z,95058.84
2024-02-07T07:13:46.369Z,95061.22
2024-02-07T07:16:14.445Z,95054.25
2024-02-07T07:18:42.440Z,95051.50
2024-02-07T07:21:10.377Z,95050.53
2024-02-07T07:23:38.273Z,95057.19
2024-02-07T07:26:06.251Z,95060.22
2024-02-07T07:28:35.540Z,95054.63
2024-02-07T07:31:03.502Z,95037.44
2024-02-07T07:33:31.495Z,95047.22
2024-02-07T07:35:59.472Z,95045.19
2024-02-07T07:38:27.392Z,95037.81
2024-02-07T07:40:55.391Z,95036.84
2024-02-07T07:43:23.393Z,95042.41
2024-02-07T07:45:52.725Z,95029.41
2024-02-07T07:48:24.179Z,95037.56
2024-02-07T07:50:52.899Z,95037.59
2024-02-07T07:53:20.860Z,95039.59
2024-02-07T07:55:48.961Z,95032.81
2024-02-07T07:58:18.055Z,95036.00
2024-02-07T08:00:48.835Z,95036.41
2024-02-07T08:03:20.132Z,95033.66
2024-02-07T08:05:49.038Z,95018.19
2024-02-07T08:08:17.195Z,95018.59
2024-02-07T08:10:47.982Z,95005.44
2024-02-07T08:13:16.225Z,95009.63
2024-02-07T08:15:45.265Z,95014.63
2024-02-07T08:18:13.348Z,95008.63
2024-02-07T08:20:42.816Z,94998.22
2024-02-07T08:23:10.695Z,95003.19
2024-02-07T08:25:38.869Z,94998.97
2024-02-07T08:28:07.589Z,95000.28
2024-02-07T08:30:35.505Z,94998.38
2024-02-07T08:33:03.602Z,95000.38
2024-02-07T08:35:31.885Z,94991.66
2024-02-07T08:38:01.571Z,94985.25
2024-02-07T08:40:29.860Z,94982.59
2024-02-07T08:42:57.869Z,94978.00
2024-02-07T08:45:26.097Z,94988.19
2024-02-07T08:47:54.105Z,94975.22
2024-02-07T08:50:22.077Z,94981.34
2024-02-07T08:52:50.274Z,94980.75
2024-02-07T08:55:19.866Z,94982.94
2024-02-07T08:57:47.829Z,94980.91
2024-02-07T09:00:16.611Z,94982.50
2024-02-07T09:02:46.770Z,94976.38
2024-02-07T09:05:14.814Z,94973.53
2024-02-07T09:07:42.858Z,94972.59
2024-02-07T09:10:11.957Z,94963.56
2024-02-07T09:12:41.325Z,94964.41
2024-02-07T09:15:09.941Z,94955.03
2024-02-07T09:17:38.020Z,94953.69
2024-02-07T09:20:07.438Z,94949.97
2024-02-07T09:22:35.735Z,94972.41
2024-02-07T09:25:03.856Z,94943.22
2024-02-07T09:27:34.480Z,94949.16
2024-02-07T09:30:11.410Z,94942.88
2024-02-07T09:32:42.320Z,94940.84
2024-02-07T09:35:10.812Z,94924.81
2024-02-07T09:37:39.092Z,94924.16
2024-02-07T09:40:08.259Z,94926.25
2024-02-07T09:42:38.816Z,94919.91
2024-02-07T09:45:10.906Z,94916.88
2024-02-07T09:47:48.425Z,94908.38
2024-02-07T09:50:18.094Z,94905.94
2024-02-07T09:52:48.121Z,94893.22
2024-02-07T09:55:16.740Z,94884.91
2024-02-07T09:57:45.056Z,94886.50
2024-02-07T10:00:15.565Z,94887.94
2024-02-07T10:02:50.926Z,94799.13
2024-02-07T10:05:21.701Z,94881.06
2024-02-07T10:07:53.174Z,94861.47
2024-02-07T10:10:21.836Z,94865.19
2024-02-07T10:12:50.517Z,94866.22
2024-02-07T10:15:20.041Z,94854.94
2024-02-07T10:17:48.012Z,94853.78
2024-02-07T10:20:17.184Z,94852.38
2024-02-07T10:22:45.621Z,94843.25
2024-02-07T10:25:15.806Z,94837.13
2024-02-07T10:27:45.150Z,94837.34
2024-02-07T10:30:15.124Z,94837.53
2024-02-07T10:32:47.098Z,94830.94
2024-02-07T10:35:19.758Z,94828.66
2024-02-07T10:37:48.034Z,94823.34
2024-02-07T10:40:16.444Z,94823.19
2024-02-07T10:42:44.455Z,94826.38
2024-02-07T10:45:14.885Z,94815.19
2024-02-07T10:47:45.398Z,94815.06
2024-02-07T10:50:13.872Z,94800.84
2024-02-07T10:52:43.399Z,94786.22
2024-02-07T10:55:13.536Z,94784.56
2024-02-07T10:57:50.859Z,94781.47
2024-02-07T11:00:20.018Z,94774.75
2024-02-07T11:02:52.083Z,94758.88
2024-02-07T11:05:23.301Z,94765.06
2024-02-07T11:07:52.457Z,94758.47
2024-02-07T11:10:22.023Z,94758.31
2024-02-07T11:12:50.479Z,94747.69
2024-02-07T11:15:18.630Z,94739.63
2024-02-07T11:17:46.633Z,94742.22
2024-02-07T11:20:16.298Z,94751.13
2024-02-07T11:22:49.350Z,94740.50
2024-02-07T11:25:21.746Z,94734.84
2024-02-07T11:27:52.305Z,94738.50
2024-02-07T11:30:20.466Z,94734.03
2024-02-07T11:32:50.274Z,94717.44
2024-02-07T11:35:21.636Z,94718.72
2024-02-07T11:37:51.189Z,94708.06
2024-02-07T11:40:25.257Z,94701.84
2024-02-07T11:43:03.059Z,94712.41
2024-02-07T11:45:31.345Z,94705.16
2024-02-07T11:47:59.536Z,94706.97
2024-02-07T11:50:38.139Z,94702.97
2024-02-07T11:53:06.621Z,94691.91
2024-02-07T11:55:42.235Z,94685.91
2024-02-07T11:58:10.545Z,94687.47
2024-02-07T12:00:38.716Z,94680.34
2024-02-07T12:03:06.756Z,94670.59
2024-02-07T12:05:36.585Z,94669.72
2024-02-07T12:08:04.872Z,94670.63
2024-02-07T12:10:32.902Z,94656.66
2024-02-07T12:13:01.149Z,94638.19
2024-02-07T12:15:29.318Z,94641.34
2024-02-07T12:17:57.458Z,94626.03
2024-02-07T12:20:29.710Z,94625.78
2024-02-07T12:23:02.969Z,94628.38
2024-02-07T12:25:31.418Z,94607.56
2024-02-07T12:28:10.373Z,94611.16
2024-02-07T12:30:38.389Z,94611.00
2024-02-07T12:33:06.705Z,94613.38
2024-02-07T12:35:34.974Z,94611.72
2024-02-07T12:38:04.485Z,94601.84
2024-02-07T12:40:33.084Z,94605.09
2024-02-07T12:43:01.986Z,94605.78
2024-02-07T12:45:32.225Z,94601.63
2024-02-07T12:48:00.737Z,94596.84
2024-02-07T12:50:28.902Z,94604.34
2024-02-07T12:52:57.220Z,94602.22
2024-02-07T12:55:27.452Z,94592.75
2024-02-07T12:58:02.569Z,94594.34
2024-02-07T13:00:30.876Z,94595.41
2024-02-07T13:02:59.507Z,94595.31
2024-02-07T13:05:27.542Z,94598.00
2024-02-07T13:07:55.844Z,94585.41
2024-02-07T13:10:24.076Z,94581.06
2024-02-07T13:12:53.391Z,94580.03
2024-02-07T13:15:21.953Z,94583.81
2024-02-07T13:17:50.464Z,94588.91
2024-02-07T13:20:23.833Z,94588.41
2024-02-07T13:22:53.448Z,94585.91
2024-02-07T13:25:22.876Z,94596.72
2024-02-07T13:27:50.911Z,94598.03
2024-02-07T13:30:20.691Z,94593.88
2024-02-07T13:32:48.802Z,94590.47
2024-02-07T13:35:18.229Z,94598.88
2024-02-07T13:37:46.583Z,94589.63
2024-02-07T13:40:15.239Z,94591.22
2024-02-07T13:42:43.337Z,94588.34
2024-02-07T13:45:11.681Z,94581.22
2024-02-07T13:47:41.274Z,94588.59
2024-02-07T13:50:10.492Z,94594.91
2024-02-07T13:52:39.109Z,94591.72
2024-02-07T13:55:08.025Z,94589.88
2024-02-07T13:57:37.996Z,94599.06
2024-02-07T14:00:07.097Z,94595.19
2024-02-07T14:02:35.104Z,94589.09
2024-02-07T14:05:04.516Z,94598.88
2024-02-07T14:07:33.266Z,94591.47
2024-02-07T14:10:01.458Z,94589.38
2024-02-07T14:12:30.157Z,94601.78
2024-02-07T14:14:58.168Z,94592.00
2024-02-07T14:17:26.140Z,94586.47
2024-02-07T14:19:54.371Z,94581.47
2024-02-07T14:22:23.765Z,94578.56
2024-02-07T14:24:51.810Z,94578.56
2024-02-07T14:27:19.765Z,94588.31
2024-02-07T14:29:47.868Z,94581.16
2024-02-07T14:32:17.936Z,94585.66
2024-02-07T14:34:47.581Z,94587.50
2024-02-07T14:37:17.131Z,94589.06
2024-02-07T14:39:46.492Z,94579.84
2024-02-07T14:42:14.494Z,94582.97
2024-02-07T14:44:42.429Z,94587.72
2024-02-07T14:47:10.530Z,94590.31
2024-02-07T14:49:39.777Z,94587.69
2024-02-07T14:52:08.465Z,94589.78
2024-02-07T14:54:36.433Z,94582.13
2024-02-07T14:57:09.378Z,94591.41
2024-02-07T14:59:38.023Z,94581.66
2024-02-07T15:02:06.505Z,94584.25
2024-02-07T15:04:35.972Z,94578.53
2024-02-07T15:07:04.132Z,94577.75
2024-02-07T15:09:32.172Z,94572.97
2024-02-07T15:12:00.160Z,94582.78
2024-02-07T15:14:29.486Z,94575.91
2024-02-07T15:16:57.574Z,94577.72
2024-02-07T15:19:25.943Z,94573.53
2024-02-07T15:21:53.873Z,94579.22
2024-02-07T15:24:21.846Z,94577.38
2024-02-07T15:26:50.062Z,94577.88
2024-02-07T15:29:18.139Z,94578.19
2024-02-07T15:31:47.631Z,94576.66
2024-02-07T15:34:15.759Z,94548.91
2024-02-07T15:36:43.845Z,94583.91
2024-02-07T15:39:11.825Z,94582.16
2024-02-07T15:41:39.802Z,94591.34
2024-02-07T15:44:07.838Z,94568.72
2024-02-07T15:46:35.868Z,94600.97
2024-02-07T15:49:09.266Z,94594.34
2024-02-07T15:51:38.372Z,94601.44
2024-02-07T15:54:06.397Z,94596.44
2024-02-07T15:56:34.424Z,94598.31
2024-02-07T15:59:02.527Z,94593.28
2024-02-07T16:01:37.257Z,94599.00
2024-02-07T16:04:15.491Z,94603.22
2024-02-07T16:06:43.630Z,94597.44
2024-02-07T16:09:12.370Z,94616.63
2024-02-07T16:11:40.420Z,94608.19
2024-02-07T16:14:09.445Z,94613.66
2024-02-07T16:16:37.467Z,94613.06
2024-02-07T16:19:05.439Z,94619.44
2024-02-07T16:21:34.766Z,94620.19
2024-02-07T16:24:02.742Z,94627.41
2024-02-07T16:26:30.714Z,94627.50
2024-02-07T16:28:58.955Z,94631.47
2024-02-07T16:31:27.147Z,94626.69
2024-02-07T16:33:55.822Z,94628.81
2024-02-07T16:36:23.944Z,94623.53
2024-02-07T16:38:53.364Z,94623.53
2024-02-07T16:41:21.386Z,94624.03
2024-02-07T16:43:49.908Z,94626.59
2024-02-07T16:46:18.053Z,94624.69
2024-02-07T16:48:46.318Z,94622.63
2024-02-07T16:51:14.484Z,94619.78
2024-02-07T16:53:43.403Z,94622.66
2024-02-07T16:56:15.023Z,94614.97
2024-02-07T16:58:44.104Z,94630.22
2024-02-07T17:01:12.154Z,94611.16
2024-02-07T17:03:40.394Z,94625.50
2024-02-07T17:06:08.608Z,94628.88
2024-02-07T17:08:36.616Z,94625.50
2024-02-07T17:11:04.692Z,94636.75
2024-02-07T17:13:34.169Z,94633.69
2024-02-07T17:16:02.879Z,94619.56
2024-02-07T17:18:30.963Z,94635.22
2024-02-07T17:20:59.064Z,94636.97
2024-02-07T17:23:27.078Z,94636.47
2024-02-07T17:25:58.255Z,94630.66
2024-02-07T17:28:27.005Z,94623.00
2024-02-07T17:30:56.511Z,94626.16
2024-02-07T17:33:24.480Z,94622.81
2024-02-07T17:35:55.047Z,94630.53
2024-02-07T17:38:23.116Z,94600.91
2024-02-07T17:40:51.510Z,94634.06
2024-02-07T17:43:19.464Z,94622.28
2024-02-07T17:45:47.426Z,94635.22
2024-02-07T17:48:18.336Z,94637.94
2024-02-07T17:50:46.440Z,94631.78
2024-02-07T17:53:14.766Z,94634.25
2024-02-07T17:55:44.264Z,94639.50
2024-02-07T17:58:14.472Z,94639.66
2024-02-07T18:00:42.424Z,94645.88
2024-02-07T18:03:10.408Z,94636.94
2024-02-07T18:05:39.914Z,94643.81
2024-02-07T18:08:09.191Z,94639.66
2024-02-07T18:10:37.264Z,94644.28
2024-02-07T18:13:05.545Z,94644.22
2024-02-07T18:15:35.225Z,94642.47
2024-02-07T18:18:05.228Z,94642.31
2024-02-07T18:20:34.243Z,94638.75
2024-02-07T18:23:03.674Z,94641.34
2024-02-07T18:25:31.663Z,94642.66
2024-02-07T18:27:59.629Z,94644.69
2024-02-07T18:30:27.567Z,94644.91
2024-02-07T18:32:55.487Z,94637.81
2024-02-07T18:35:24.345Z,94554.72
2024-02-07T18:37:52.470Z,94631.44
2024-02-07T18:40:21.866Z,94637.38
2024-02-07T18:42:49.869Z,94633.53
2024-02-07T18:45:17.851Z,94626.38
2024-02-07T18:47:45.833Z,94631.00
2024-02-07T18:50:13.820Z,94632.56
2024-02-07T18:52:42.177Z,94635.63
2024-02-07T18:55:10.608Z,94637.44
2024-02-07T18:57:40.059Z,94638.69
2024-02-07T19:00:09.719Z,94642.72
2024-02-07T19:02:37.906Z,94644.03
2024-02-07T19:05:07.098Z,94641.06
2024-02-07T19:07:35.263Z,94648.47
2024-02-07T19:10:03.617Z,94644.09
2024-02-07T19:12:31.538Z,94648.28
2024-02-07T19:15:00.938Z,94645.63
2024-02-07T19:17:28.945Z,94646.09
2024-02-07T19:19:56.921Z,94647.25
2024-02-07T19:22:24.956Z,94645.44
2024-02-07T19:24:54.023Z,94637.56
2024-02-07T19:27:22.415Z,94648.69
2024-02-07T19:29:50.613Z,94636.41
2024-02-07T19:32:20.367Z,94641.84
2024-02-07T19:34:49.819Z,94640.59
2024-02-07T19:37:18.093Z,94635.94
2024-02-07T19:39:46.120Z,94632.09
2024-02-07T19:42:14.112Z,94632.19
2024-02-07T19:44:42.056Z,94638.06
2024-02-07T19:47:09.995Z,94633.53
2024-02-07T19:49:39.447Z,94635.44
2024-02-07T19:52:07.669Z,94634.56
2024-02-07T19:54:35.635Z,94625.25
2024-02-07T19:57:03.573Z,94620.66
2024-02-07T19:59:31.500Z,94617.94
2024-02-07T20:01:59.589Z,94618.38
2024-02-07T20:04:27.643Z,94618.69
2024-02-07T20:06:56.961Z,94621.19
2024-02-07T20:09:25.147Z,94615.22
2024-02-07T20:11:53.348Z,94615.03
2024-02-07T20:14:21.381Z,94618.50
2024-02-07T20:16:49.317Z,94619.44
2024-02-07T20:19:17.286Z,94618.75
2024-02-07T20:21:45.297Z,94625.22
2024-02-07T20:24:14.732Z,94623.09
2024-02-07T20:26:42.888Z,94626.19
2024-02-07T20:29:11.464Z,94612.91
2024-02-07T20:31:39.740Z,94626.81
2024-02-07T20:34:07.973Z,94624.81
2024-02-07T20:36:37.960Z,94626.34
2024-02-07T20:39:06.766Z,94625.84
2024-02-07T20:41:46.288Z,94617.03
2024-02-07T20:44:17.544Z,94623.91
2024-02-07T20:46:45.696Z,94609.13
2024-02-07T20:49:14.094Z,94611.63
2024-02-07T20:51:42.039Z,94622.31
2024-02-07T20:54:10.685Z,94622.31
2024-02-07T20:56:39.007Z,94621.69
2024-02-07T20:59:08.689Z,94626.50
2024-02-07T21:01:36.987Z,94621.38
2024-02-07T21:04:05.363Z,94613.38
2024-02-07T21:06:33.484Z,94624.88
2024-02-07T21:09:01.563Z,94628.75
2024-02-07T21:11:29.662Z,94628.78
2024-02-07T21:13:57.792Z,94627.78
2024-02-07T21:16:28.278Z,94634.69
2024-02-07T21:18:56.571Z,94621.56
2024-02-07T21:21:24.820Z,94630.28
2024-02-07T21:23:54.000Z,94636.28
2024-02-07T21:26:21.951Z,94622.13
2024-02-07T21:28:49.961Z,94630.34
2024-02-07T21:31:17.936Z,94626.88
2024-02-07T21:33:50.586Z,94634.63
2024-02-07T21:36:19.292Z,94635.50
2024-02-07T21:38:47.626Z,94638.13
2024-02-07T21:41:16.651Z,94637.69
2024-02-07T21:43:46.348Z,94602.47
2024-02-07T21:46:14.372Z,94636.19
2024-02-07T21:48:42.419Z,94638.91
2024-02-07T21:51:11.844Z,94649.25
2024-02-07T21:53:39.816Z,94629.09
2024-02-07T21:56:08.008Z,94648.28
2024-02-07T21:58:36.525Z,94662.81
2024-02-07T22:01:04.707Z,94650.91
2024-02-07T22:03:32.814Z,94652.38
2024-02-07T22:06:04.960Z,94658.63
2024-02-07T22:08:34.697Z,94660.59
2024-02-07T22:11:03.067Z,94667.50
2024-02-07T22:13:31.546Z,94663.59
2024-02-07T22:15:59.763Z,94610.81
2024-02-07T22:18:27.722Z,94658.13
2024-02-07T22:20:56.143Z,94657.22
2024-02-07T22:23:24.237Z,94665.97
2024-02-07T22:25:53.665Z,94675.19
2024-02-07T22:28:22.078Z,94662.81
2024-02-07T22:30:50.460Z,94655.50
2024-02-07T22:33:18.753Z,94665.53
2024-02-07T22:35:48.399Z,94664.47
2024-02-07T22:38:16.690Z,94666.22
2024-02-07T22:40:44.798Z,94658.94
2024-02-07T22:43:14.247Z,94665.28
2024-02-07T22:45:43.825Z,94659.00
2024-02-07T22:48:11.888Z,94663.28
2024-02-07T22:50:39.978Z,94665.03
2024-02-07T22:53:08.006Z,94662.53
2024-02-07T22:55:36.229Z,94665.13
2024-02-07T22:58:04.227Z,94661.66
2024-02-07T23:00:37.520Z,94655.75
2024-02-07T23:03:06.258Z,94665.13
2024-02-07T23:05:34.277Z,94665.72
2024-02-07T23:08:02.424Z,94669.56
2024-02-07T23:10:30.944Z,94670.13
2024-02-07T23:12:59.181Z,94671.75
2024-02-07T23:15:27.323Z,94681.91
2024-02-07T23:17:56.858Z,94679.38
2024-02-07T23:20:24.864Z,94674.81
2024-02-07T23:22:53.517Z,94663.00
2024-02-07T23:25:22.236Z,94676.25
2024-02-07T23:27:50.395Z,94674.56
2024-02-07T23:30:19.781Z,94669.44
2024-02-07T23:32:48.008Z,94676.13
2024-02-07T23:35:17.778Z,94667.59
2024-02-07T23:37:45.896Z,94679.44
2024-02-07T23:40:14.163Z,94670.22
2024-02-07T23:42:42.290Z,94675.94
2024-02-07T23:45:10.736Z,94660.97
2024-02-07T23:47:40.102Z,94666.75
2024-02-07T23:50:09.010Z,94661.91
2024-02-07T23:52:38.703Z,94665.31
2024-02-07T23:55:08.487Z,94653.97
2024-02-07T23:57:36.691Z,94665.97
